Date TemperatureHighC TemperatureAvgC TemperatureLowC DewpointHighC DewpointAvgC DewpointLowC HumidityHigh HumidityAvg HumidityLow PressureMaxhPa PressureMinhPa WindSpeedMaxKMH WindSpeedAvgKMH GustSpeedMaxKMH PrecipitationSumCM
2017-12-31 14.6 11.6 8.5 11.4 9.2 6.8 95 87 75 1022 1017 8 1 13 0.00
2018-1-1 13.7 12.0 10.2 11.9 8.8 4.7 94 81 61 1017 1009 24 2 35 0.33
2018-1-2 14.8 9.4 4.1 9.8 5.1 2.2 96 75 43 1018 1007 13 1 26 0.18
2018-1-3 15.7 11.1 6.4 10.1 7.5 4.7 91 79 65 1017 1006 26 1 47 0.00
2018-1-4 15.0 10.7 6.5 11.7 9.2 5.6 95 86 79 1011 1008 6 1 14 0.00
2018-1-5 15.8 11.7 7.6 12.6 9.9 6.4 95 89 79 1011 1007 8 1 18 0.03
2018-1-6 16.1 13.7 11.2 12.4 11.3 10.2 94 90 79 1013 1010 13 1 21 0.00
2018-1-7 17.8 14.3 10.7 10.2 7.2 4.3 94 64 46 1018 1013 11 1 18 0.00
2018-1-8 19.1 16.8 14.4 12.7 8.1 4.4 89 58 48 1019 1016 13 2 27 0.23
2018-1-9 14.7 14.2 13.9 12.8 12.7 6.8 91 90 89 1020 1017 8 2 19 1.37
2018-1-10 12.3 12.3 12.3 8.4 8.3 8.2 77 76 76 1015 1015 2 0 6 0.03
2018-1-11 10.5 9.3 8.1 7.3 6.7 5.7 91 85 74 1012 1009 14 2 23 0.13
2018-1-12 11.8 10.6 9.3 4.5 3.1 2.2 68 62 59 1018 1012 11 5 24 0.00
2018-1-13 11.8 7.9 4.0 3.3 2.4 1.6 84 72 56 1020 1019 2 0 16 0.00
2018-1-14 9.6 5.2 0.7 3.8 0.8 -0.7 92 84 67 1020 1019 2 0 2 0.00
2018-1-15 6.7 4.0 1.4 5.2 2.9 0.6 94 92 90 1022 1020 0 0 2 0.00
2018-1-16 14.3 9.9 5.5 8.7 6.8 4.3 95 79 61 1019 1009 11 1 16 0.03
2018-1-17 13.7 11.7 9.6 -1.8 -4.4 -5.9 34 34 33 1017 1005 5 2 26 0.00
2018-1-18 14.1 7.0 -0.1 5.6 0.8 -3.9 84 67 42 1020 1015 5 0 11 0.00
2018-1-19 12.2 9.7 7.2 10.2 7.2 4.8 91 84 69 1015 1010 6 1 16 0.00
2018-1-20 14.3 8.9 3.6 9.9 6.0 2.7 96 83 56 1014 1007 8 0 16 0.38
2018-1-21 16.5 11.1 5.7 11.4 7.9 3.7 96 84 53 1012 1003 13 1 16 0.28
2018-1-22 12.8 8.6 4.3 8.7 2.9 -1.2 86 65 51 1015 1012 10 1 16 0.00
2018-1-23 17.3 11.6 5.8 12.0 8.2 3.4 96 83 64 1027 1014 6 0 11 0.00
2018-1-24 15.5 10.6 5.7 11.0 7.5 3.2 95 84 73 1031 1027 8 0 10 0.00
2018-1-25 14.6 10.3 5.9 10.4 7.6 5.2 96 88 68 1030 1024 8 1 11 0.00
2018-1-26 12.0 9.8 7.6 9.4 8.1 6.6 94 86 79 1024 1021 11 2 19 0.03
2018-1-27 16.3 11.0 5.7 10.3 8.4 4.8 95 82 60 1032 1024 5 0 11 0.00
2018-1-28 16.3 10.1 3.7 11.8 6.2 2.7 95 84 59 1035 1032 6 0 11 0.00
2018-1-29 15.3 8.9 2.5 10.2 5.8 1.8 97 87 67 1035 1031 6 0 11 0.03
2018-1-30 12.5 10.2 7.9 9.2 7.8 6.5 92 87 76 1031 1028 3 0 5 0.00
2018-1-31 13.3 11.1 8.9 8.8 7.8 6.4 92 84 63 1028 1017 6 0 18 0.00
2018-2-1 12.4 10.9 9.4 9.9 8.3 6.7 94 84 70 1017 1005 14 2 27 1.35
2018-2-2 11.8 9.7 7.7 10.9 9.3 6.8 97 95 93 1005 997 13 1 27 5.38
2018-2-3 9.1 5.4 1.7 8.5 4.7 0.1 96 90 78 1008 992 11 1 18 0.74
2018-2-4 12.5 5.9 -0.7 3.0 0.9 -1.8 93 75 46 1018 1008 8 0 13 0.00
2018-2-5 12.6 9.2 5.8 7.5 4.7 1.7 89 78 66 1019 1016 14 1 19 0.03
2018-2-6 9.2 7.7 6.3 7.0 4.9 2.7 91 81 68 1016 1005 19 3 29 0.86
2018-2-7 11.4 8.1 4.8 8.0 6.3 3.9 95 88 74 1010 1002 11 1 13 0.18
2018-2-8 11.1 7.1 3.2 5.9 4.4 1.7 96 83 63 1017 1010 8 1 14 0.08
2018-2-9 12.8 8.1 3.3 6.8 3.9 1.8 92 81 52 1018 1012 10 0 14 0.00
2018-2-10 13.0 7.1 1.1 2.8 1.4 -0.9 92 72 45 1012 1007 16 1 24 0.03
2018-2-11 12.1 5.9 -0.2 3.0 0.7 -1.8 91 73 47 1012 1010 11 0 14 0.00
2018-2-12 12.2 7.9 3.8 7.8 3.8 -0.1 88 76 59 1010 1007 13 1 23 0.05
2018-2-13 10.7 6.0 1.3 0.9 -0.9 -2.9 77 65 43 1013 1009 13 1 21 0.00
2018-2-14 11.4 6.4 1.3 -1.5 -3.1 -5.4 72 56 32 1019 1010 11 1 16 0.00
2018-2-15 11.6 4.3 -2.8 0.8 -2.6 -5.5 83 61 33 1024 1019 13 0 19 0.00
2018-2-16 11.8 7.7 3.6 6.3 3.7 0.1 88 75 62 1025 1024 5 0 8 0.00
2018-2-17 11.8 10.1 8.3 11.2 7.3 4.9 97 87 76 1024 1016 10 1 13 1.65
2018-2-18 13.3 10.0 6.6 11.2 8.2 3.6 97 88 71 1016 1013 11 1 27 0.89
2018-2-19 9.8 5.9 1.9 4.4 3.2 0.2 91 78 67 1014 1011 11 1 26 0.33
2018-2-20 10.4 5.2 0.1 2.3 -0.2 -1.3 92 73 45 1011 1004 11 1 14 0.00
2018-2-21 9.2 6.8 4.3 1.3 0.3 -0.7 77 66 56 1004 1003 16 2 27 0.00
2018-2-22 9.9 7.1 4.3 3.2 2.0 0.8 90 73 62 1003 1000 23 3 35 0.38
2018-2-23 9.8 7.7 5.6 6.3 4.3 2.8 90 83 68 1002 999 26 4 35 1.27
2018-2-24 14.4 11.0 7.6 7.2 6.1 4.3 90 75 59 1007 999 34 4 37 0.23
2018-2-25 8.4 3.9 -0.6 4.3 1.2 -3.5 90 82 75 1008 1006 24 4 34 0.33
2018-2-26 1.8 -1.3 -4.3 -3.1 -7.9 -10.1 82 60 46 1008 1005 16 3 24 0.00
2018-2-27 3.9 -0.9 -5.7 -8.2 -9.9 -11.6 71 55 33 1012 1006 6 1 23 0.00
2018-2-28 5.1 0.1 -4.9 -2.2 -8.6 -11.6 90 54 35 1016 1012 14 2 24 0.00
2018-3-1 6.9 2.9 -1.0 6.2 2.4 -2.4 96 90 81 1013 999 18 2 24 1.60
2018-3-2 14.5 10.7 6.9 12.6 8.1 5.1 97 89 73 1000 993 21 3 34 1.19
2018-3-3 13.8 10.9 7.9 12.8 7.7 4.0 96 87 69 1001 992 16 1 21 2.87
2018-3-4 14.0 10.7 7.3 9.1 7.7 5.9 95 85 69 1004 1001 11 1 13 0.61
2018-3-5 11.4 9.5 7.6 7.8 7.1 5.7 95 87 76 1001 993 10 1 14 0.10
2018-3-6 15.2 11.4 7.5 10.6 8.3 6.2 96 88 63 998 991 11 1 19 2.11
2018-3-7 15.2 10.6 6.0 11.7 7.1 4.0 96 81 54 1006 998 8 1 19 0.03
2018-3-8 15.9 11.4 6.9 8.2 6.3 3.2 90 71 43 1015 1006 11 1 16 0.00
2018-3-9 16.4 12.1 7.7 10.3 8.3 6.7 95 82 56 1018 1014 10 1 14 0.00
2018-3-10 13.9 11.8 9.6 11.4 10.2 8.2 95 89 82 1016 1014 8 1 13 0.05
2018-3-11 14.1 12.5 10.9 12.7 11.4 9.9 96 94 89 1014 1003 21 2 27 2.26
2018-3-12 16.3 12.7 9.0 11.8 9.9 7.2 96 83 59 1007 1003 18 2 26 0.08
2018-3-13 15.4 11.2 6.9 7.9 6.4 5.2 90 71 55 1012 1007 21 2 26 0.00
2018-3-14 16.4 11.0 5.6 9.4 6.7 4.4 95 76 52 1014 1011 11 1 18 0.00
2018-3-15 13.1 9.2 5.3 12.5 8.8 4.2 96 91 83 1011 1001 14 2 21 1.52
2018-3-16 18.0 12.7 7.3 12.5 10.3 6.7 97 85 53 1005 1002 10 1 14 0.43
2018-3-17 15.3 11.1 6.9 10.3 8.3 5.3 95 86 63 1003 995 6 1 21 0.51
2018-3-18 11.2 8.5 5.8 9.1 7.3 5.1 95 92 84 997 990 21 2 27 3.02
2018-3-19 12.2 8.8 5.4 8.4 5.8 3.7 96 89 60 1003 995 14 1 27 2.06
2018-3-20 11.7 8.1 4.4 7.3 5.5 3.3 96 89 71 1003 1001 32 2 37 1.80
2018-3-21 9.2 6.9 4.6 4.3 -0.4 -3.0 94 61 50 1015 1002 32 5 42 0.00
2018-3-22 10.5 6.3 2.1 -1.7 -4.1 -7.3 61 48 32 1015 1004 21 4 31 0.00
2018-3-23 13.4 8.2 2.9 -1.7 -3.3 -5.6 70 47 31 1004 1001 19 3 23 0.00
2018-3-24 15.1 8.6 2.0 3.7 0.0 -2.6 75 56 34 1005 1001 8 1 14 0.00
2018-3-25 15.4 10.1 4.8 1.9 0.4 -0.7 70 54 34 1007 1003 16 2 23 0.00
2018-3-26 16.2 10.5 4.8 5.0 2.2 0.0 87 61 38 1012 1006 11 1 23 0.00
2018-3-27 17.1 9.4 1.8 8.8 3.3 -1.1 88 69 33 1015 1012 14 1 21 0.00
2018-3-28 18.1 11.6 4.9 11.4 7.6 3.4 94 78 52 1014 1010 10 1 18 0.00
2018-3-29 17.8 14.4 10.9 12.1 10.6 8.6 93 81 59 1011 1008 14 2 19 0.00
2018-3-30 17.3 15.1 12.9 13.0 11.8 10.7 92 84 74 1010 1005 18 2 24 0.00
2018-3-31 15.7 11.9 8.1 10.8 8.8 5.9 94 78 61 1006 997 14 2 31 0.13
2018-4-1 17.9 12.8 7.7 9.2 6.4 3.3 95 68 39 1014 1000 16 2 29 0.13
2018-4-2 18.4 12.0 5.6 9.3 6.6 3.5 90 73 47 1019 1014 10 1 23 0.00
2018-4-3 18.2 13.1 8.1 10.1 7.1 3.8 90 71 39 1019 1016 16 2 27 0.00
2018-4-4 13.9 12.6 11.3 13.3 11.6 8.3 96 93 77 1017 1014 14 1 19 6.12
2018-4-5 19.5 14.4 9.5 12.3 10.1 8.1 96 80 52 1017 1013 11 1 23 0.03
2018-4-6 22.1 14.3 6.4 12.9 9.8 5.1 97 76 49 1020 1017 10 1 18 0.00
2018-4-7 22.3 17.1 11.8 12.3 5.6 0.6 77 47 39 1018 1015 16 2 21 0.00
2018-4-8 23.2 15.8 8.4 9.7 7.3 5.2 88 60 34 1016 1009 11 1 18 0.00
2018-4-9 16.3 12.9 9.4 13.3 11.1 8.5 95 87 73 1012 1005 14 1 16 0.99
2018-4-10 16.2 13.1 10.0 12.4 10.5 9.2 96 90 73 1012 1010 8 1 19 0.28
2018-4-11 15.6 13.0 10.4 11.9 10.5 9.2 94 83 73 1011 1003 10 1 13 0.13
2018-4-12 18.1 14.7 11.2 12.7 10.2 6.4 93 79 48 1009 1005 6 1 13 0.00
2018-4-13 19.1 13.8 8.4 11.2 9.4 7.0 96 78 52 1019 1009 10 1 16 0.00
2018-4-14 25.7 16.6 7.4 9.8 7.6 4.4 91 58 31 1019 1012 14 2 26 0.00
2018-4-15 23.1 19.6 16.1 12.3 7.1 3.7 74 46 38 1012 1005 16 2 23 0.00
2018-4-16 23.7 16.6 9.6 14.3 10.1 7.7 89 66 46 1015 1007 16 1 19 0.00
2018-4-17 23.7 17.1 10.5 16.8 12.6 8.8 95 82 59 1023 1015 6 0 13 1.02
2018-4-18 23.6 18.8 14.1 12.4 9.8 7.7 88 54 40 1025 1023 18 2 27 0.00
2018-4-19 26.7 20.7 14.6 14.1 10.2 6.4 83 54 37 1026 1023 18 2 27 0.00
2018-4-20 29.3 20.4 11.6 14.1 10.1 7.8 81 54 26 1023 1018 10 1 21 0.00
2018-4-21 28.6 21.1 13.6 13.7 9.6 6.8 77 49 26 1019 1016 13 1 16 0.00
2018-4-22 25.1 18.0 10.9 17.2 12.9 9.3 92 74 46 1019 1016 8 1 16 0.00
2018-4-23 26.3 17.7 9.1 15.7 9.8 7.5 92 67 32 1019 1017 11 1 18 0.00
2018-4-24 25.4 18.2 10.8 15.1 11.2 7.9 94 68 43 1019 1017 10 1 16 0.00
2018-4-25 24.6 18.9 13.3 15.4 12.8 10.5 93 72 44 1019 1015 8 1 16 0.00
2018-4-26 25.8 19.3 12.8 15.4 12.3 9.0 91 64 35 1016 1012 11 1 14 0.00
2018-4-27 26.4 18.5 10.7 13.5 11.2 7.9 91 66 39 1013 1010 6 1 16 0.00
2018-4-28 27.3 19.1 10.9 15.2 11.9 9.3 91 67 37 1012 1011 6 1 13 0.00
2018-4-29 26.9 19.9 13.1 13.3 10.9 8.2 80 57 33 1012 1008 6 1 16 0.00
2018-4-30 22.6 17.9 13.4 13.8 9.7 5.5 85 64 37 1014 1011 10 1 18 0.00
2018-5-1 15.6 13.2 10.7 13.3 11.0 7.6 96 85 73 1014 1010 8 0 10 1.90
2018-5-2 18.0 14.9 11.9 15.4 13.2 11.3 97 90 78 1010 1001 10 1 16 1.73
2018-5-3 21.3 17.8 14.2 15.4 13.3 11.9 92 77 65 1002 998 26 3 32 0.15
2018-5-4 22.8 18.6 14.4 16.2 13.7 11.4 96 81 61 1012 1001 19 2 34 1.73
2018-5-5 22.2 18.3 14.3 17.4 15.1 13.7 97 92 69 1015 1012 8 0 13 3.61
2018-5-6 20.4 17.0 13.5 18.3 15.7 13.1 97 95 86 1016 1014 6 0 10 2.39
2018-5-7 25.1 20.0 14.9 19.7 16.2 14.4 98 91 68 1016 1011 10 1 18 1.17
2018-5-8 20.8 16.9 13.1 18.5 15.2 12.6 98 92 80 1012 1006 13 0 14 0.28
2018-5-9 23.4 18.7 13.8 17.8 15.1 12.6 97 87 63 1007 1005 8 0 11 0.28
2018-5-10 23.8 18.3 12.9 18.8 14.7 11.9 96 85 61 1014 1007 10 0 14 2.13
2018-5-11 24.1 17.7 11.3 16.8 14.3 10.5 97 80 61 1017 1014 8 1 16 0.00
2018-5-12 24.1 18.2 12.3 16.3 13.9 11.3 96 77 55 1017 1013 11 1 19 0.00
2018-5-13 23.1 16.7 10.2 16.3 13.2 9.2 94 79 56 1014 1009 13 1 19 0.48
2018-5-14 18.8 14.3 9.8 12.3 10.0 7.8 93 77 55 1013 1010 14 2 21 0.18
2018-5-15 18.9 14.0 9.2 12.2 10.0 7.4 93 79 51 1014 1010 8 1 11 0.13
2018-5-16 21.5 16.7 11.9 14.8 12.1 10.2 93 79 61 1015 1013 8 1 16 0.00
2018-5-17 22.1 16.9 11.8 15.4 13.1 10.7 95 84 58 1016 1014 8 1 14 0.38
2018-5-18 25.8 17.9 9.9 16.7 12.7 8.9 95 74 45 1016 1013 8 0 13 0.13
2018-5-19 27.2 19.1 11.0 14.4 11.6 7.8 90 63 36 1015 1013 16 1 21 0.00
2018-5-20 27.8 21.1 14.3 17.1 13.0 9.8 87 61 36 1014 1011 11 1 19 0.00
2018-5-21 25.9 21.1 16.2 16.6 13.9 10.9 95 67 47 1013 1010 8 1 14 3.84
2018-5-22 21.7 18.0 14.3 18.1 15.8 13.3 97 92 68 1015 1011 8 0 10 2.87
2018-5-23 24.1 18.7 13.4 18.2 15.2 12.6 96 84 65 1017 1014 11 1 16 0.20
2018-5-24 25.7 19.8 13.9 17.7 15.4 12.9 96 78 57 1017 1016 8 1 24 0.00
2018-5-25 27.9 19.6 11.3 19.4 14.9 10.4 96 74 51 1017 1014 10 0 14 0.00
2018-5-26 30.3 22.7 15.1 20.2 17.3 13.6 93 73 51 1018 1016 8 0 11 0.00
2018-5-27 27.9 23.1 18.2 21.1 18.2 15.7 92 77 57 1018 1015 10 0 13 0.00
2018-5-28 27.2 22.3 17.5 19.3 16.7 14.2 93 73 46 1019 1016 6 0 10 0.03
2018-5-29 28.8 22.9 16.9 19.0 16.8 15.1 92 74 46 1017 1013 5 0 11 0.00
2018-5-30 27.1 22.9 18.9 21.3 18.2 15.7 91 78 58 1015 1011 10 1 18 0.51
2018-5-31 27.8 21.6 15.4 19.7 16.9 14.1 96 78 56 1018 1014 10 1 18 0.03
2018-6-1 26.4 20.6 14.8 17.7 15.1 13.3 94 72 46 1020 1017 11 1 19 0.00
2018-6-2 28.0 20.4 12.9 17.6 15.3 11.6 93 73 50 1019 1016 10 0 13 0.00
2018-6-3 29.6 21.7 13.9 17.7 15.1 11.7 89 66 42 1018 1013 6 0 11 0.00
2018-6-4 27.7 22.4 17.2 19.8 16.4 14.7 88 74 49 1013 1009 11 1 18 0.00
2018-6-5 24.4 20.1 15.8 18.5 16.6 14.3 93 81 64 1013 1010 11 1 19 0.00
2018-6-6 27.3 21.2 15.2 19.1 16.9 14.2 95 79 55 1016 1012 8 1 16 0.00
2018-6-7 28.1 22.2 16.3 20.1 17.6 15.1 93 80 58 1016 1013 8 0 16 0.51
2018-6-8 26.4 20.4 14.3 18.7 16.3 13.3 95 82 58 1013 1010 8 1 16 0.43
2018-6-9 26.7 21.6 16.4 18.2 16.1 14.3 95 71 52 1015 1012 13 1 18 0.00
2018-6-10 29.4 22.0 14.6 17.6 15.1 12.8 93 68 37 1014 1012 10 0 16 0.00
2018-6-11 30.3 23.4 16.5 18.5 15.4 12.3 84 63 40 1013 1009 5 0 19 0.00
2018-6-12 27.3 22.2 17.1 20.1 17.3 14.3 86 75 60 1010 1007 10 1 18 0.00
2018-6-13 24.7 20.4 16.0 18.7 16.4 14.9 96 88 69 1008 1003 11 1 18 8.10
2018-6-14 27.1 21.6 16.1 19.1 16.8 15.3 96 79 53 1009 1005 11 1 21 0.03
2018-6-15 27.4 21.9 16.4 16.1 14.4 12.7 87 62 45 1011 1008 13 1 19 0.00
2018-6-16 30.1 23.2 16.3 17.1 14.4 12.2 79 59 37 1012 1010 11 1 24 0.00
2018-6-17 30.4 23.1 15.7 20.8 16.3 12.3 85 65 47 1014 1012 11 1 16 0.00
2018-6-18 31.6 23.7 15.7 19.4 16.1 13.7 90 63 35 1016 1013 14 1 19 0.00
2018-6-19 31.8 24.6 17.2 17.0 14.2 11.2 78 51 35 1017 1015 18 1 26 0.00
2018-6-20 32.4 26.8 21.1 19.7 15.7 11.7 81 53 39 1018 1016 16 1 26 0.00
2018-6-21 30.2 25.2 20.3 21.6 19.6 17.8 92 75 54 1017 1014 6 0 14 0.00
2018-6-22 29.7 24.6 19.5 21.5 19.6 18.4 95 79 55 1014 1010 11 1 13 0.00
2018-6-23 28.9 24.3 19.7 18.9 13.8 9.4 80 55 35 1016 1013 14 2 26 0.00
2018-6-24 29.0 22.7 16.3 14.3 9.7 4.8 70 44 30 1017 1014 8 1 18 0.00
2018-6-25 29.7 22.3 14.9 17.1 12.1 7.8 88 61 32 1016 1012 16 1 29 0.38
2018-6-26 27.0 20.5 14.1 13.9 10.7 7.9 82 54 32 1017 1014 23 2 27 0.00
2018-6-27 29.7 23.2 16.7 18.7 12.6 8.7 89 56 34 1016 1011 14 1 19 0.53
2018-6-28 27.9 22.0 16.1 17.3 14.8 11.1 90 68 40 1014 1009 13 1 18 0.00
2018-6-29 29.7 22.7 15.7 19.1 15.8 13.2 93 67 40 1011 1010 14 1 19 0.00
2018-6-30 32.6 24.6 16.6 20.2 16.9 14.7 94 65 39 1011 1009 10 0 13 0.00
2018-7-1 31.5 23.4 15.4 17.4 14.9 12.2 86 59 33 1013 1011 10 0 18 0.00
2018-7-2 31.1 25.2 19.2 21.4 17.7 13.9 88 65 42 1014 1012 5 0 8 0.00
2018-7-3 29.8 25.6 21.3 21.9 20.4 18.8 91 75 55 1015 1013 0 0 0 0.00
2018-7-4 30.9 25.1 19.2 22.5 20.4 17.6 92 77 58 1016 1014 0 0 0 0.00
2018-7-5 30.6 25.1 19.7 22.2 21.0 18.6 95 79 57 1016 1012 0 0 0 0.00
2018-7-6 31.3 25.2 19.2 22.0 19.6 18.1 94 74 50 1015 1011 0 0 0 0.00
2018-7-7 31.6 24.9 18.3 22.2 19.3 17.2 94 79 48 1016 1015 0 0 0 1.83
2018-7-8 32.1 24.7 17.4 22.9 18.2 15.0 94 70 37 1016 1014 0 0 0 0.23
2018-7-9 32.9 26.3 19.8 18.5 14.0 10.8 87 49 28 1015 1013 0 0 0 0.00
2018-7-10 31.8 24.9 18.1 20.2 16.7 14.0 82 61 38 1014 1011 0 0 0 0.00
2018-7-11 32.6 26.7 20.8 21.4 19.2 15.7 90 69 42 1013 1010 0 0 0 0.00
2018-7-12 31.6 25.7 19.8 18.4 16.5 11.8 80 60 30 1016 1013 0 0 0 0.00
2018-7-13 32.6 25.3 18.2 19.9 17.5 15.3 89 65 40 1017 1016 0 0 0 0.00
2018-7-14 34.7 26.5 18.3 19.6 17.1 14.9 86 60 35 1017 1013 0 0 0 0.00
2018-7-15 32.8 25.7 18.5 20.6 16.5 13.6 74 56 40 1014 1012 0 0 0 0.00
2018-7-16 31.1 24.6 18.2 23.0 17.6 12.6 90 65 48 1014 1007 6 0 21 0.48
2018-7-17 30.7 23.7 16.6 21.3 17.9 15.6 95 72 48 1013 1008 13 1 18 0.23
2018-7-18 34.0 25.4 16.8 21.9 17.1 14.3 89 65 35 1014 1013 10 0 18 0.00
2018-7-19 33.2 25.3 17.4 21.4 16.5 13.6 81 59 33 1014 1012 10 0 14 0.00
2018-7-20 33.4 25.4 17.6 21.7 17.9 14.2 89 64 32 1014 1012 11 0 19 0.00
2018-7-21 31.9 26.3 20.7 21.9 20.1 16.8 92 76 41 1012 1009 10 1 13 0.00
2018-7-22 30.4 25.1 19.8 21.6 19.6 16.3 95 73 44 1011 1009 16 1 23 0.03
2018-7-23 31.1 25.2 19.3 20.3 19.0 16.2 95 72 44 1013 1009 14 1 21 0.15
2018-7-24 33.6 27.3 20.9 18.7 15.6 12.8 78 52 29 1013 1011 23 1 24 0.00
2018-7-25 33.1 26.1 19.1 21.5 18.5 15.7 87 65 40 1012 1010 13 1 18 0.00
2018-7-26 34.9 26.2 17.3 21.4 17.4 14.7 85 60 34 1012 1010 13 1 18 0.00
2018-7-27 32.9 26.5 20.0 21.7 19.1 16.8 83 65 43 1012 1011 10 1 16 0.00
2018-7-28 33.6 26.6 19.5 22.4 17.8 13.8 93 62 33 1013 1011 13 1 21 0.00
2018-7-29 33.7 26.6 19.4 22.6 19.7 16.4 91 67 45 1014 1012 18 1 23 0.00
2018-7-30 35.7 27.3 19.1 24.4 21.1 17.4 91 68 42 1013 1011 14 1 21 0.00
2018-7-31 37.7 29.3 20.9 21.7 19.2 16.8 88 57 30 1013 1011 13 1 21 0.00
2018-8-1 38.2 30.5 22.7 20.9 18.6 16.6 73 52 29 1014 1012 16 1 21 0.00
2018-8-2 37.0 29.1 21.3 22.2 19.2 15.7 80 60 35 1015 1013 13 1 24 0.00
2018-8-3 34.2 28.3 22.5 20.8 19.3 18.1 76 59 41 1014 1012 19 1 23 0.00
2018-8-4 35.7 29.1 22.6 23.8 20.1 17.5 92 67 38 1014 1011 18 1 23 0.79
2018-8-5 35.2 28.0 20.8 22.0 20.1 17.8 92 66 36 1014 1012 10 1 14 0.00
2018-8-6 35.1 27.8 20.5 23.9 20.8 17.2 88 68 37 1015 1013 8 0 18 0.00
2018-8-7 33.5 27.7 22.0 24.2 21.8 16.7 92 73 41 1015 1013 8 0 24 0.00
2018-8-8 33.9 27.4 20.9 23.9 20.8 16.7 92 69 42 1015 1013 8 1 19 0.00
2018-8-9 34.2 27.5 20.8 23.4 20.7 18.7 89 69 44 1018 1014 6 0 18 0.00
2018-8-10 34.1 27.7 21.3 23.0 20.2 16.7 90 68 36 1020 1017 11 1 21 0.00
2018-8-11 34.6 27.1 19.6 21.0 18.5 13.8 92 63 29 1020 1016 13 1 23 0.00
2018-8-12 34.8 26.1 17.3 19.4 16.9 13.4 87 60 31 1017 1014 8 0 16 0.00
2018-8-13 31.1 24.8 18.6 22.3 18.9 15.7 88 73 50 1015 1011 8 1 29 0.00
2018-8-14 30.2 24.2 18.3 21.2 18.6 16.0 95 78 45 1014 1010 14 1 21 4.34
2018-8-15 30.3 25.0 19.7 18.8 17.5 15.8 90 66 46 1014 1011 19 1 19 0.00
2018-8-16 33.4 26.4 19.5 17.6 15.7 14.3 78 54 33 1014 1011 11 1 21 0.00
2018-8-17 32.8 25.8 18.8 20.4 15.7 13.2 82 54 34 1014 1012 14 1 19 0.00
2018-8-18 33.5 25.9 18.3 23.2 18.7 15.3 92 73 37 1016 1014 26 0 27 2.18
2018-8-19 34.2 26.6 18.8 23.2 18.8 17.0 91 74 37 1016 1013 13 1 27 0.99
2018-8-20 35.6 26.9 18.3 21.1 18.3 16.1 92 75 32 1014 1012 16 1 23 1.12
2018-8-21 35.0 26.3 17.7 21.3 18.3 15.9 93 73 33 1014 1012 14 1 34 0.99
2018-8-22 34.1 26.2 18.3 19.9 17.8 14.4 90 64 32 1015 1013 8 0 14 0.00
2018-8-23 32.7 25.9 19.1 23.3 18.4 15.9 86 67 42 1015 1010 8 0 14 0.23
2018-8-24 33.2 26.1 19.1 22.7 19.7 16.8 93 74 46 1012 1008 10 1 16 0.15
2018-8-25 30.8 25.3 19.8 23.6 19.8 16.4 91 75 57 1009 1005 16 1 21 0.00
2018-8-26 27.9 23.1 18.2 18.8 14.7 8.3 83 62 41 1012 1004 11 1 18 0.00
2018-8-27 28.4 21.2 13.8 15.2 11.3 8.3 78 54 32 1016 1012 11 1 18 0.00
2018-8-28 33.2 23.8 14.6 19.1 13.6 9.1 84 59 28 1016 1014 10 1 18 0.00
2018-8-29 32.4 24.1 15.8 18.6 14.9 11.1 83 60 35 1015 1014 8 0 18 0.00
2018-8-30 31.8 24.8 17.8 21.5 18.2 15.2 92 71 43 1016 1014 14 1 18 0.00
2018-8-31 30.2 25.3 20.5 21.7 18.6 12.6 93 72 36 1015 1013 8 1 16 0.00
2018-9-1 28.8 23.8 18.7 19.9 17.2 15.1 85 73 48 1014 1012 8 1 16 0.00
2018-9-2 25.3 20.8 16.3 18.4 16.3 14.8 91 79 59 1015 1013 8 0 13 0.38
2018-9-3 27.4 21.2 14.9 17.6 15.2 13.4 92 73 47 1015 1013 8 0 16 0.00
2018-9-4 28.2 22.4 16.6 18.6 16.3 14.1 89 72 45 1015 1013 8 0 16 0.00
2018-9-5 29.8 22.7 15.6 19.4 17.0 14.5 94 74 45 1016 1013 8 0 16 0.00
2018-9-6 29.8 22.8 15.8 21.0 18.0 14.5 93 79 44 1014 1010 11 1 19 0.00
2018-9-7 28.9 23.9 18.9 21.0 18.7 16.6 96 78 49 1014 1010 10 1 18 0.43
2018-9-8 29.4 23.1 16.8 19.7 17.8 15.8 95 74 49 1019 1014 13 1 18 0.00
2018-9-9 31.1 24.1 17.0 19.1 17.3 15.5 92 71 46 1020 1019 10 0 18 0.00
2018-9-10 32.7 24.8 16.9 18.4 16.1 14.8 89 65 39 1022 1019 8 0 19 0.00
2018-9-11 33.2 24.6 16.0 17.7 14.6 12.2 87 59 31 1024 1022 11 0 16 0.00
2018-9-12 34.1 25.5 16.9 16.9 13.9 11.6 80 56 27 1024 1018 10 0 18 0.00
2018-9-13 20.1 19.2 18.4 15.4 13.6 13.1 76 70 65 1018 1015 3 0 5 0.00
2018-9-16 26.6 23.3 20.1 21.3 20.2 18.9 93 87 70 1021 1020 3 0 6 0.00
2018-9-17 28.3 23.5 18.7 21.7 19.8 17.9 96 85 62 1021 1018 11 1 19 0.13
2018-9-18 28.8 24.2 19.6 21.3 19.7 18.1 93 80 59 1020 1017 14 1 18 0.00
2018-9-19 29.2 23.9 18.7 23.2 19.8 17.7 94 83 58 1019 1016 8 0 11 0.56
2018-9-20 30.4 24.5 18.7 22.1 17.9 15.8 94 72 45 1018 1015 19 1 26 0.05
2018-9-21 30.5 23.8 17.1 20.6 17.9 15.4 94 75 45 1016 1014 11 1 18 0.00
2018-9-22 29.7 24.0 18.2 21.6 19.8 17.4 97 83 53 1018 1015 11 1 21 0.03
2018-9-23 29.2 23.5 17.8 20.8 19.0 16.5 93 79 50 1019 1016 10 1 16 0.00
2018-9-24 30.7 24.8 18.9 22.3 17.7 9.2 94 73 51 1020 1012 26 2 31 0.00
2018-9-25 24.0 19.3 14.7 10.0 6.1 2.7 61 44 27 1030 1020 24 4 35 0.00
2018-9-26 22.7 16.6 10.6 4.8 2.7 0.3 59 40 24 1033 1030 23 2 34 0.00
2018-9-27 28.9 17.9 6.8 2.8 -1.9 -12.8 63 33 6 1030 1022 13 1 19 0.00
2018-9-28 30.4 20.7 10.9 5.4 0.6 -5.4 53 28 13 1022 1012 14 1 18 0.00
2018-9-29 30.1 20.5 10.9 14.9 8.0 3.1 67 47 26 1017 1012 16 2 26 0.00
2018-9-30 27.5 21.0 14.4 13.3 9.6 4.1 82 50 31 1017 1013 18 1 26 0.00
2018-10-1 24.9 19.4 13.9 18.6 13.7 10.4 94 76 50 1013 1004 16 1 19 0.43
2018-10-2 20.7 16.8 12.8 13.4 11.2 8.7 93 73 57 1017 1006 16 3 32 1.17
2018-10-3 26.9 19.9 13.0 11.9 9.3 7.7 71 54 33 1019 1015 16 1 19 0.00
2018-10-4 27.5 22.6 17.7 13.7 9.3 7.0 68 47 33 1021 1016 27 4 39 0.00
2018-10-5 24.3 21.0 17.7 13.6 9.9 5.7 77 52 41 1021 1016 23 3 31 0.05
2018-10-6 18.6 17.1 15.5 17.4 15.0 12.3 96 89 67 1017 1012 16 1 21 0.97
2018-10-7 23.9 19.0 14.0 17.3 15.4 13.6 97 86 59 1016 1012 8 0 13 0.03
2018-10-8 26.0 19.3 12.7 18.2 15.0 11.9 96 83 50 1019 1016 11 0 21 0.05
2018-10-9 26.2 20.6 15.0 16.7 14.2 12.2 95 72 46 1020 1018 8 1 16 0.00
2018-10-10 25.3 20.4 15.4 17.4 15.3 12.9 89 76 53 1020 1019 11 1 14 0.00
2018-10-11 21.3 18.8 16.2 18.1 16.1 13.8 94 86 75 1021 1018 10 1 18 0.48
2018-10-12 26.8 20.2 13.7 16.9 14.3 11.0 93 75 51 1024 1021 6 0 11 0.00
2018-10-13 26.3 20.4 14.6 13.5 11.1 9.0 82 59 34 1023 1020 10 1 18 0.00
2018-10-14 25.7 18.7 11.8 15.2 12.3 9.8 92 73 42 1020 1016 11 0 14 0.00
2018-10-15 25.7 19.3 12.9 15.2 13.2 10.8 89 73 44 1016 1015 11 1 14 0.00
2018-10-16 21.3 19.6 17.8 17.1 14.8 13.0 89 74 66 1017 1015 11 1 16 0.10
2018-10-17 22.8 20.2 17.6 17.5 16.2 15.0 89 80 69 1017 1014 8 1 11 0.00
2018-10-18 27.1 22.7 18.2 17.4 15.1 13.4 82 68 48 1014 1011 10 1 16 0.00
2018-10-19 27.6 21.0 14.4 16.1 12.8 9.6 90 65 33 1018 1013 11 1 16 0.00
2018-10-20 27.8 20.1 12.3 16.1 11.3 9.2 85 65 32 1021 1018 10 0 13 0.00
2018-10-21 25.4 18.3 11.1 15.6 9.8 4.4 80 59 43 1021 1013 16 2 35 0.00
2018-10-22 18.8 13.8 8.9 7.3 5.5 3.1 71 59 46 1019 1015 16 2 26 0.00
2018-10-23 22.5 15.8 9.1 9.6 7.9 5.7 80 62 41 1021 1018 13 1 21 0.00
2018-10-24 22.9 15.4 8.0 15.9 11.4 5.3 96 78 59 1018 1012 14 1 21 0.00
2018-10-25 23.7 16.9 10.3 16.6 13.2 9.2 95 82 54 1018 1014 10 1 16 0.00
2018-10-26 23.8 20.6 17.3 17.3 16.2 14.9 92 83 63 1016 1012 8 1 14 0.00
2018-10-27 23.5 20.5 17.5 17.1 16.0 14.2 91 78 57 1012 1001 16 3 31 0.00
2018-10-28 22.1 19.2 16.4 17.7 16.1 13.8 95 81 62 1003 998 21 3 40 0.05
2018-10-29 22.5 17.4 12.4 17.9 14.8 9.0 97 86 68 1002 986 31 5 51 9.35
2018-10-30 17.6 14.8 12.0 11.8 10.0 8.5 88 78 62 1017 1001 18 3 29 0.53
2018-10-31 18.7 15.5 12.4 13.8 11.4 9.2 91 81 62 1020 1016 8 1 26 0.33
2018-11-1 20.6 16.8 13.1 16.4 14.6 10.9 96 90 74 1018 1012 14 1 29 5.13
2018-11-2 16.8 15.8 14.8 15.8 9.3 14.1 96 94 91 1017 1014 11 1 18 2.82
2018-11-3 23.2 19.5 15.8 15.2 13.7 11.9 89 67 57 1019 1013 19 2 27 0.03
2018-11-4 21.6 18.4 15.3 14.4 12.8 12.0 90 71 59 1014 1011 19 2 26 0.10
2018-11-5 20.2 17.7 15.2 14.7 12.8 11.3 93 79 63 1015 1011 13 1 21 0.38
2018-11-6 19.6 17.1 14.4 16.2 14.6 13.5 96 89 75 1015 1013 13 1 18 0.99
2018-11-7 16.3 13.7 11.2 14.7 13.0 10.4 96 94 85 1021 1013 10 1 16 1.14
2018-11-8 20.3 15.1 9.9 14.6 11.8 9.1 97 88 68 1023 1021 5 0 11 0.05
2018-11-9 18.7 14.7 10.8 13.9 12.3 10.2 97 88 73 1021 1017 6 1 13 0.03
2018-11-10 20.4 15.9 11.4 13.5 11.9 10.3 96 83 59 1017 1014 5 0 10 0.05
2018-11-11 19.7 15.6 11.5 15.6 13.1 10.7 96 91 75 1024 1017 6 0 10 0.08
2018-11-12 19.9 15.1 10.4 15.1 12.1 9.8 97 94 72 1027 1024 3 0 10 0.03
2018-11-13 18.4 14.6 10.7 15.4 12.8 10.1 97 92 80 1029 1027 6 0 8 0.05
2018-11-14 20.3 15.2 10.2 16.2 12.3 9.6 97 87 68 1028 1024 6 0 11 0.03
2018-11-15 19.6 14.8 9.9 11.9 9.4 6.4 90 73 55 1024 1021 10 1 18 0.00
2018-11-16 15.9 13.1 10.3 7.1 5.4 2.7 71 61 50 1022 1021 23 3 27 0.00
2018-11-17 13.7 11.4 9.2 5.4 4.2 3.3 70 65 54 1022 1018 23 3 27 0.00
2018-11-18 12.8 9.4 6.1 4.1 2.8 0.2 69 63 53 1018 1010 21 3 34 0.00
2018-11-19 10.2 6.1 1.9 5.7 2.1 -0.8 87 70 61 1010 999 13 1 21 0.05
2018-11-20 12.6 10.1 7.6 10.3 8.1 5.7 96 89 84 1009 998 6 0 13 0.41
2018-11-21 13.1 9.0 4.9 11.6 8.7 4.3 97 93 82 1016 1009 10 1 14 0.41
2018-11-22 17.9 12.3 6.7 13.0 9.4 6.3 97 89 64 1021 1016 3 0 5 0.05
2018-11-23 15.5 12.8 10.1 14.2 12.1 8.9 95 92 85 1021 1016 18 2 21 1.42
2018-11-24 17.6 15.1 12.6 15.4 13.8 11.7 95 90 84 1016 1011 10 1 18 0.33
2018-11-25 13.9 11.3 8.7 13.2 11.3 7.8 97 95 88 1011 1001 8 0 21 2.90
2018-11-26 14.5 11.3 8.2 10.7 8.8 7.4 96 91 67 1002 1000 10 1 19 2.77
2018-11-27 13.9 10.4 6.9 8.1 6.6 3.8 95 77 63 1012 1001 19 2 31 0.00
2018-11-28 13.2 8.2 3.3 3.9 1.4 -1.7 83 61 44 1022 1012 21 2 26 0.00
2018-11-29 15.5 7.8 0.2 2.1 0.2 -1.8 89 67 35 1024 1021 10 0 14 0.00
2018-11-30 13.1 8.3 3.6 9.3 5.7 0.7 89 81 73 1022 1014 8 1 14 0.00
2018-12-1 17.0 11.7 6.4 11.2 8.6 5.3 96 87 52 1019 1014 6 0 13 3.45
2018-12-2 13.1 9.1 5.1 10.7 7.9 4.2 96 90 80 1020 1017 6 0 10 0.03
2018-12-3 15.4 13.5 11.7 13.2 11.9 10.4 93 89 86 1017 1012 8 1 11 0.00
2018-12-4 18.4 13.0 7.6 14.1 11.9 6.7 95 88 72 1020 1012 14 1 19 0.03
2018-12-5 17.9 11.4 4.9 11.5 7.8 3.9 96 85 57 1025 1020 5 0 10 0.03
2018-12-6 13.1 10.2 7.3 12.5 10.3 6.6 96 94 91 1024 1019 8 0 11 1.57
2018-12-7 15.2 10.7 6.2 11.4 8.8 5.4 97 89 75 1023 1014 3 0 8 0.03
2018-12-8 16.7 10.9 5.2 11.4 6.9 2.2 96 74 39 1017 1010 14 1 27 0.03
2018-12-9 16.3 11.0 5.7 10.4 7.9 4.2 92 79 66 1016 1009 27 2 42 0.00
2018-12-10 16.9 10.1 3.3 9.3 3.5 -1.7 92 64 31 1017 1011 13 1 23 0.00
2018-12-11 14.1 7.4 0.7 0.1 -2.7 -5.9 78 57 25 1019 1016 8 0 14 0.00
2018-12-12 10.7 6.1 1.4 1.0 -2.6 -5.0 67 53 37 1019 1016 14 1 14 0.00
2018-12-13 8.0 6.2 4.3 3.8 1.9 -1.9 86 74 50 1016 1010 14 2 19 0.03
2018-12-14 9.4 6.1 2.8 3.5 1.9 -1.6 88 74 63 1014 1008 16 3 29 0.23
2018-12-15 8.5 3.4 -1.6 -1.1 -2.6 -4.2 85 67 48 1021 1014 13 1 18 0.00
2018-12-16 7.1 2.7 -1.7 5.1 0.0 -4.0 95 77 58 1021 1011 14 1 24 2.79
2018-12-17 7.4 5.8 4.3 5.4 3.7 1.1 95 86 71 1025 1011 24 2 26 0.33
2018-12-18 13.8 6.7 -0.4 3.1 0.1 -1.9 90 71 39 1028 1025 10 0 18 0.00
2018-12-19 10.2 5.2 0.3 7.6 1.8 -1.9 93 74 55 1025 1018 11 1 21 0.25
2018-12-20 13.5 9.8 6.2 9.7 7.6 5.3 97 90 64 1025 1018 13 1 14 2.36
2018-12-21 15.1 10.1 5.2 11.1 7.8 4.4 96 90 72 1028 1025 14 1 18 0.15
2018-12-22 15.5 12.4 9.3 12.8 10.7 7.9 94 88 82 1026 1022 8 1 11 0.00
2018-12-23 17.3 12.9 8.6 13.1 10.7 7.7 97 90 71 1025 1023 6 0 10 0.03
2018-12-24 15.3 11.9 8.5 12.3 9.9 3.2 97 88 55 1023 1016 19 1 27 0.03
2018-12-25 14.6 8.8 3.1 4.6 1.8 -0.4 84 63 37 1030 1022 16 1 24 0.00
2018-12-26 13.9 7.4 1.0 5.9 1.4 -2.1 94 77 56 1032 1029 5 0 6 0.00
2018-12-27 14.1 8.9 3.6 9.3 6.0 2.7 97 89 72 1029 1026 5 0 11 0.03
2018-12-28 13.6 8.6 3.6 9.9 6.9 2.8 97 91 77 1026 1025 6 0 8 0.03
2018-12-29 15.6 9.7 3.8 10.8 6.7 3.3 97 90 67 1027 1025 5 0 11 0.00
2018-12-30 14.7 10.3 6.0 10.5 6.4 -0.1 97 84 57 1026 1023 8 0 21 0.03
2018-12-31 15.7 9.0 2.3 7.7 2.3 -1.3 93 70 34 1027 1024 6 0 13 0.00
2019-1-1 13.9 9.0 4.1 4.6 2.2 0.0 88 66 47 1029 1020 8 0 14 0.00